<?xml version="1.0" encoding="UTF-8" standalone="no" ?>
<gpx xmlns="http://www.topografix.com/GPX/1/1" xmlns:xsi="http://www.w3.org/2001/XMLSchema-instance" xsi:schemaLocation="http://www.topografix.com/GPX/1/1 http://www.topografix.com/GPX/1/1/gpx.xsd" version="1.1" creator="VisuGPX - https://www.visugpx.com">
  <metadata>
    <name>valencogne - St Genis</name>
    <desc><![CDATA[
valencogne-st genis]]></desc>
  </metadata>
  <trk>
    <name><![CDATA[valencogne - St Genis_1]]></name>
    <desc><![CDATA[valencogne-st genis]]></desc>
    <extensions>
      <line xmlns="http://www.topografix.com/GPX/gpx_style/0/2">
        <color>0000FF</color>
        <width>4</width>
      </line>
    </extensions>
    <trkseg>
      <trkpt lat="45.49893" lon="5.53991">
        <ele>564</ele>
        <time>2015-11-14T23:40:09Z</time>
      </trkpt>
      <trkpt lat="45.4993" lon="5.54059">
        <ele>566</ele>
        <time>2015-11-14T23:33:29Z</time>
      </trkpt>
      <trkpt lat="45.49934" lon="5.54047">
        <ele>566</ele>
        <time>2015-11-14T23:32:49Z</time>
      </trkpt>
      <trkpt lat="45.49962" lon="5.54096">
        <ele>567</ele>
        <time>2015-11-14T23:32:09Z</time>
      </trkpt>
      <trkpt lat="45.4998" lon="5.54107">
        <ele>567</ele>
        <time>2015-11-14T23:23:29Z</time>
      </trkpt>
      <trkpt lat="45.50024" lon="5.54167">
        <ele>572</ele>
        <time>2015-11-14T23:22:49Z</time>
      </trkpt>
      <trkpt lat="45.50116" lon="5.54203">
        <ele>580</ele>
        <time>2015-11-14T23:22:09Z</time>
      </trkpt>
      <trkpt lat="45.50159" lon="5.54226">
        <ele>582</ele>
        <time>2015-11-14T23:21:29Z</time>
      </trkpt>
      <trkpt lat="45.50176" lon="5.54239">
        <ele>583</ele>
        <time>2015-11-14T23:20:49Z</time>
      </trkpt>
      <trkpt lat="45.50188" lon="5.54249">
        <ele>585</ele>
        <time>2015-11-14T23:20:09Z</time>
      </trkpt>
      <trkpt lat="45.50257" lon="5.54349">
        <ele>594</ele>
        <time>2015-11-14T23:19:29Z</time>
      </trkpt>
      <trkpt lat="45.50288" lon="5.54316">
        <ele>595</ele>
        <time>2015-11-14T23:18:49Z</time>
      </trkpt>
      <trkpt lat="45.50325" lon="5.54264">
        <ele>594</ele>
        <time>2015-11-14T23:18:09Z</time>
      </trkpt>
      <trkpt lat="45.50335" lon="5.5426">
        <ele>595</ele>
        <time>2015-11-14T23:17:29Z</time>
      </trkpt>
      <trkpt lat="45.50373" lon="5.5426">
        <ele>594</ele>
        <time>2015-11-14T23:16:49Z</time>
      </trkpt>
      <trkpt lat="45.5044" lon="5.54281">
        <ele>592</ele>
        <time>2015-11-14T23:16:09Z</time>
      </trkpt>
      <trkpt lat="45.50449" lon="5.54283">
        <ele>590</ele>
        <time>2015-11-14T23:14:09Z</time>
      </trkpt>
      <trkpt lat="45.50465" lon="5.54294">
        <ele>589</ele>
        <time>2015-11-14T23:13:29Z</time>
      </trkpt>
      <trkpt lat="45.50511" lon="5.54344">
        <ele>584</ele>
        <time>2015-11-14T23:12:49Z</time>
      </trkpt>
      <trkpt lat="45.50522" lon="5.54367">
        <ele>582</ele>
        <time>2015-11-14T23:12:09Z</time>
      </trkpt>
      <trkpt lat="45.50587" lon="5.54591">
        <ele>581</ele>
        <time>2015-11-14T23:11:29Z</time>
      </trkpt>
      <trkpt lat="45.50611" lon="5.54623">
        <ele>577</ele>
        <time>2015-11-14T23:10:49Z</time>
      </trkpt>
      <trkpt lat="45.50635" lon="5.54639">
        <ele>573</ele>
        <time>2015-11-14T23:09:29Z</time>
      </trkpt>
      <trkpt lat="45.50667" lon="5.54783">
        <ele>572</ele>
        <time>2015-11-14T23:08:49Z</time>
      </trkpt>
      <trkpt lat="45.50744" lon="5.54833">
        <ele>562</ele>
        <time>2015-11-14T23:08:09Z</time>
      </trkpt>
      <trkpt lat="45.50795" lon="5.55009">
        <ele>560</ele>
        <time>2015-11-14T23:07:29Z</time>
      </trkpt>
      <trkpt lat="45.50833" lon="5.55041">
        <ele>558</ele>
        <time>2015-11-14T23:06:49Z</time>
      </trkpt>
      <trkpt lat="45.50885" lon="5.55124">
        <ele>555</ele>
        <time>2015-11-14T23:06:09Z</time>
      </trkpt>
      <trkpt lat="45.50966" lon="5.55358">
        <ele>546</ele>
        <time>2015-11-14T23:05:29Z</time>
      </trkpt>
      <trkpt lat="45.50974" lon="5.55413">
        <ele>546</ele>
        <time>2015-11-14T23:04:49Z</time>
      </trkpt>
      <trkpt lat="45.5097" lon="5.55445">
        <ele>546</ele>
        <time>2015-11-14T23:04:09Z</time>
      </trkpt>
      <trkpt lat="45.50981" lon="5.5548">
        <ele>543</ele>
        <time>2015-11-14T23:03:29Z</time>
      </trkpt>
      <trkpt lat="45.51031" lon="5.55554">
        <ele>531</ele>
        <time>2015-11-14T23:02:49Z</time>
      </trkpt>
      <trkpt lat="45.51071" lon="5.55599">
        <ele>526</ele>
        <time>2015-11-14T23:02:09Z</time>
      </trkpt>
      <trkpt lat="45.51101" lon="5.55625">
        <ele>526</ele>
        <time>2015-11-14T23:01:29Z</time>
      </trkpt>
      <trkpt lat="45.51178" lon="5.5564">
        <ele>525</ele>
        <time>2015-11-14T23:00:49Z</time>
      </trkpt>
      <trkpt lat="45.51223" lon="5.55647">
        <ele>524</ele>
        <time>2015-11-14T23:00:09Z</time>
      </trkpt>
      <trkpt lat="45.5126" lon="5.5563">
        <ele>522</ele>
        <time>2015-11-14T22:59:29Z</time>
      </trkpt>
      <trkpt lat="45.51286" lon="5.55639">
        <ele>521</ele>
        <time>2015-11-14T22:58:49Z</time>
      </trkpt>
      <trkpt lat="45.51369" lon="5.55723">
        <ele>520</ele>
        <time>2015-11-14T22:58:09Z</time>
      </trkpt>
      <trkpt lat="45.51449" lon="5.55737">
        <ele>520</ele>
        <time>2015-11-14T22:57:29Z</time>
      </trkpt>
      <trkpt lat="45.51599" lon="5.55776">
        <ele>519</ele>
        <time>2015-11-14T22:56:49Z</time>
      </trkpt>
      <trkpt lat="45.51688" lon="5.5583">
        <ele>511</ele>
        <time>2015-11-14T22:56:09Z</time>
      </trkpt>
      <trkpt lat="45.51761" lon="5.55903">
        <ele>495</ele>
        <time>2015-11-14T22:55:29Z</time>
      </trkpt>
      <trkpt lat="45.51813" lon="5.55931">
        <ele>484</ele>
        <time>2015-11-14T22:54:49Z</time>
      </trkpt>
      <trkpt lat="45.51828" lon="5.55931">
        <ele>481</ele>
        <time>2015-11-14T22:54:09Z</time>
      </trkpt>
      <trkpt lat="45.51892" lon="5.55862">
        <ele>473</ele>
        <time>2015-11-14T22:53:29Z</time>
      </trkpt>
      <trkpt lat="45.51939" lon="5.55833">
        <ele>466</ele>
        <time>2015-11-14T22:52:49Z</time>
      </trkpt>
      <trkpt lat="45.52012" lon="5.55814">
        <ele>452</ele>
        <time>2015-11-14T22:52:09Z</time>
      </trkpt>
      <trkpt lat="45.52035" lon="5.55836">
        <ele>448</ele>
        <time>2015-11-14T22:51:29Z</time>
      </trkpt>
      <trkpt lat="45.52037" lon="5.55862">
        <ele>447</ele>
        <time>2015-11-14T22:50:49Z</time>
      </trkpt>
      <trkpt lat="45.51984" lon="5.55952">
        <ele>452</ele>
        <time>2015-11-14T22:50:09Z</time>
      </trkpt>
      <trkpt lat="45.51954" lon="5.55978">
        <ele>456</ele>
        <time>2015-11-14T22:49:29Z</time>
      </trkpt>
      <trkpt lat="45.51933" lon="5.56051">
        <ele>454</ele>
        <time>2015-11-14T22:48:49Z</time>
      </trkpt>
      <trkpt lat="45.51908" lon="5.561">
        <ele>453</ele>
        <time>2015-11-14T22:48:09Z</time>
      </trkpt>
      <trkpt lat="45.51891" lon="5.56197">
        <ele>449</ele>
        <time>2015-11-14T22:47:29Z</time>
      </trkpt>
      <trkpt lat="45.51885" lon="5.56289">
        <ele>453</ele>
        <time>2015-11-14T22:46:49Z</time>
      </trkpt>
      <trkpt lat="45.5189" lon="5.56319">
        <ele>454</ele>
        <time>2015-11-14T22:46:09Z</time>
      </trkpt>
      <trkpt lat="45.51913" lon="5.56291">
        <ele>451</ele>
        <time>2015-11-14T22:45:29Z</time>
      </trkpt>
      <trkpt lat="45.51929" lon="5.56284">
        <ele>450</ele>
        <time>2015-11-14T22:44:49Z</time>
      </trkpt>
      <trkpt lat="45.51962" lon="5.56285">
        <ele>451</ele>
        <time>2015-11-14T22:44:09Z</time>
      </trkpt>
      <trkpt lat="45.52017" lon="5.56243">
        <ele>448</ele>
        <time>2015-11-14T22:43:29Z</time>
      </trkpt>
      <trkpt lat="45.52034" lon="5.56245">
        <ele>451</ele>
        <time>2015-11-14T22:42:49Z</time>
      </trkpt>
      <trkpt lat="45.52042" lon="5.56257">
        <ele>454</ele>
        <time>2015-11-14T22:42:09Z</time>
      </trkpt>
      <trkpt lat="45.52077" lon="5.565">
        <ele>474</ele>
        <time>2015-11-14T22:41:29Z</time>
      </trkpt>
      <trkpt lat="45.52051" lon="5.56717">
        <ele>484</ele>
        <time>2015-11-14T22:40:49Z</time>
      </trkpt>
      <trkpt lat="45.52022" lon="5.56874">
        <ele>493</ele>
        <time>2015-11-14T22:40:09Z</time>
      </trkpt>
      <trkpt lat="45.52113" lon="5.56867">
        <ele>482</ele>
        <time>2015-11-14T22:39:29Z</time>
      </trkpt>
      <trkpt lat="45.52273" lon="5.56838">
        <ele>455</ele>
        <time>2015-11-14T22:38:49Z</time>
      </trkpt>
      <trkpt lat="45.52402" lon="5.56835">
        <ele>434</ele>
        <time>2015-11-14T22:38:09Z</time>
      </trkpt>
      <trkpt lat="45.52473" lon="5.56855">
        <ele>427</ele>
        <time>2015-11-14T22:37:29Z</time>
      </trkpt>
      <trkpt lat="45.52485" lon="5.56884">
        <ele>428</ele>
        <time>2015-11-14T22:36:49Z</time>
      </trkpt>
      <trkpt lat="45.52486" lon="5.56917">
        <ele>430</ele>
        <time>2015-11-14T22:36:09Z</time>
      </trkpt>
      <trkpt lat="45.52516" lon="5.56914">
        <ele>428</ele>
        <time>2015-11-14T22:35:29Z</time>
      </trkpt>
      <trkpt lat="45.52623" lon="5.56925">
        <ele>422</ele>
        <time>2015-11-14T22:34:49Z</time>
      </trkpt>
      <trkpt lat="45.52636" lon="5.5693">
        <ele>421</ele>
        <time>2015-11-14T22:34:09Z</time>
      </trkpt>
      <trkpt lat="45.52686" lon="5.56987">
        <ele>419</ele>
        <time>2015-11-14T22:33:29Z</time>
      </trkpt>
      <trkpt lat="45.52702" lon="5.5699">
        <ele>418</ele>
        <time>2015-11-14T22:32:49Z</time>
      </trkpt>
      <trkpt lat="45.52768" lon="5.56974">
        <ele>414</ele>
        <time>2015-11-14T22:32:09Z</time>
      </trkpt>
      <trkpt lat="45.52843" lon="5.56934">
        <ele>407</ele>
        <time>2015-11-14T22:31:29Z</time>
      </trkpt>
      <trkpt lat="45.52856" lon="5.56959">
        <ele>407</ele>
        <time>2015-11-14T22:30:49Z</time>
      </trkpt>
      <trkpt lat="45.52864" lon="5.57038">
        <ele>407</ele>
        <time>2015-11-14T22:30:09Z</time>
      </trkpt>
      <trkpt lat="45.5289" lon="5.57047">
        <ele>405</ele>
        <time>2015-11-14T22:29:29Z</time>
      </trkpt>
      <trkpt lat="45.5291" lon="5.57065">
        <ele>403</ele>
        <time>2015-11-14T22:28:49Z</time>
      </trkpt>
      <trkpt lat="45.52929" lon="5.57097">
        <ele>401</ele>
        <time>2015-11-14T22:28:09Z</time>
      </trkpt>
      <trkpt lat="45.52945" lon="5.57238">
        <ele>398</ele>
        <time>2015-11-14T22:27:29Z</time>
      </trkpt>
      <trkpt lat="45.52981" lon="5.57247">
        <ele>396</ele>
        <time>2015-11-14T22:26:49Z</time>
      </trkpt>
      <trkpt lat="45.53117" lon="5.57254">
        <ele>391</ele>
        <time>2015-11-14T22:26:09Z</time>
      </trkpt>
      <trkpt lat="45.53122" lon="5.57288">
        <ele>391</ele>
        <time>2015-11-14T22:25:29Z</time>
      </trkpt>
      <trkpt lat="45.5312" lon="5.57465">
        <ele>394</ele>
        <time>2015-11-14T22:24:49Z</time>
      </trkpt>
      <trkpt lat="45.53126" lon="5.5755">
        <ele>395</ele>
        <time>2015-11-14T22:24:09Z</time>
      </trkpt>
      <trkpt lat="45.53144" lon="5.57564">
        <ele>395</ele>
        <time>2015-11-14T22:23:29Z</time>
      </trkpt>
      <trkpt lat="45.53188" lon="5.57562">
        <ele>394</ele>
        <time>2015-11-14T22:22:49Z</time>
      </trkpt>
      <trkpt lat="45.53217" lon="5.57538">
        <ele>393</ele>
        <time>2015-11-14T22:22:09Z</time>
      </trkpt>
      <trkpt lat="45.53234" lon="5.57458">
        <ele>392</ele>
        <time>2015-11-14T22:21:29Z</time>
      </trkpt>
      <trkpt lat="45.5325" lon="5.57446">
        <ele>391</ele>
        <time>2015-11-14T22:20:49Z</time>
      </trkpt>
      <trkpt lat="45.53343" lon="5.57454">
        <ele>391</ele>
        <time>2015-11-14T22:20:09Z</time>
      </trkpt>
      <trkpt lat="45.53348" lon="5.57461">
        <ele>391</ele>
        <time>2015-11-14T22:19:29Z</time>
      </trkpt>
      <trkpt lat="45.53359" lon="5.57453">
        <ele>391</ele>
        <time>2015-11-14T22:18:49Z</time>
      </trkpt>
      <trkpt lat="45.53445" lon="5.57451">
        <ele>395</ele>
        <time>2015-11-14T22:18:09Z</time>
      </trkpt>
      <trkpt lat="45.53485" lon="5.57462">
        <ele>398</ele>
        <time>2015-11-14T22:17:29Z</time>
      </trkpt>
      <trkpt lat="45.5343" lon="5.57868">
        <ele>400</ele>
        <time>2015-11-14T22:16:49Z</time>
      </trkpt>
      <trkpt lat="45.53396" lon="5.58016">
        <ele>400</ele>
        <time>2015-11-14T22:16:09Z</time>
      </trkpt>
      <trkpt lat="45.53388" lon="5.58117">
        <ele>400</ele>
        <time>2015-11-14T22:15:29Z</time>
      </trkpt>
      <trkpt lat="45.53449" lon="5.5814">
        <ele>400</ele>
        <time>2015-11-14T22:14:49Z</time>
      </trkpt>
      <trkpt lat="45.53518" lon="5.58147">
        <ele>400</ele>
        <time>2015-11-14T22:14:09Z</time>
      </trkpt>
      <trkpt lat="45.53556" lon="5.58169">
        <ele>400</ele>
        <time>2015-11-14T22:13:29Z</time>
      </trkpt>
      <trkpt lat="45.53558" lon="5.58217">
        <ele>400</ele>
        <time>2015-11-14T22:12:49Z</time>
      </trkpt>
      <trkpt lat="45.53555" lon="5.58277">
        <ele>400</ele>
        <time>2015-11-14T22:12:09Z</time>
      </trkpt>
      <trkpt lat="45.53543" lon="5.5835">
        <ele>400</ele>
        <time>2015-11-14T22:11:29Z</time>
      </trkpt>
      <trkpt lat="45.53537" lon="5.58399">
        <ele>400</ele>
        <time>2015-11-14T22:10:49Z</time>
      </trkpt>
      <trkpt lat="45.53534" lon="5.58451">
        <ele>400</ele>
        <time>2015-11-14T22:10:09Z</time>
      </trkpt>
      <trkpt lat="45.53528" lon="5.58514">
        <ele>400</ele>
        <time>2015-11-14T22:09:29Z</time>
      </trkpt>
      <trkpt lat="45.53525" lon="5.58581">
        <ele>400</ele>
        <time>2015-11-14T22:08:49Z</time>
      </trkpt>
      <trkpt lat="45.53525" lon="5.58636">
        <ele>400</ele>
        <time>2015-11-14T22:08:09Z</time>
      </trkpt>
      <trkpt lat="45.53578" lon="5.58626">
        <ele>400</ele>
        <time>2015-11-14T22:07:29Z</time>
      </trkpt>
      <trkpt lat="45.53612" lon="5.58606">
        <ele>399</ele>
        <time>2015-11-15T02:56:35Z</time>
      </trkpt>
      <trkpt lat="45.53622" lon="5.58629">
        <ele>399</ele>
        <time>2015-11-15T02:55:15Z</time>
      </trkpt>
      <trkpt lat="45.53639" lon="5.58653">
        <ele>399</ele>
        <time>2015-11-15T02:53:55Z</time>
      </trkpt>
      <trkpt lat="45.5368" lon="5.58664">
        <ele>397</ele>
        <time>2015-11-15T02:52:35Z</time>
      </trkpt>
      <trkpt lat="45.53738" lon="5.58676">
        <ele>394</ele>
        <time>2015-11-15T02:51:15Z</time>
      </trkpt>
      <trkpt lat="45.53771" lon="5.58703">
        <ele>392</ele>
        <time>2015-11-15T02:49:15Z</time>
      </trkpt>
      <trkpt lat="45.53818" lon="5.58719">
        <ele>391</ele>
        <time>2015-11-15T02:48:35Z</time>
      </trkpt>
      <trkpt lat="45.53866" lon="5.58723">
        <ele>388</ele>
        <time>2015-11-15T02:47:55Z</time>
      </trkpt>
      <trkpt lat="45.53892" lon="5.5877">
        <ele>386</ele>
        <time>2015-11-15T02:46:35Z</time>
      </trkpt>
      <trkpt lat="45.53922" lon="5.58823">
        <ele>384</ele>
        <time>2015-11-15T02:45:55Z</time>
      </trkpt>
      <trkpt lat="45.53957" lon="5.58866">
        <ele>383</ele>
        <time>2015-11-15T02:45:15Z</time>
      </trkpt>
      <trkpt lat="45.54001" lon="5.58893">
        <ele>381</ele>
        <time>2015-11-15T02:44:35Z</time>
      </trkpt>
      <trkpt lat="45.54052" lon="5.58915">
        <ele>380</ele>
        <time>2015-11-15T02:43:55Z</time>
      </trkpt>
      <trkpt lat="45.54108" lon="5.58964">
        <ele>373</ele>
        <time>2015-11-15T02:41:55Z</time>
      </trkpt>
      <trkpt lat="45.54156" lon="5.58997">
        <ele>362</ele>
        <time>2015-11-15T02:41:15Z</time>
      </trkpt>
      <trkpt lat="45.54187" lon="5.59038">
        <ele>359</ele>
        <time>2015-11-15T02:40:35Z</time>
      </trkpt>
      <trkpt lat="45.54177" lon="5.59081">
        <ele>356</ele>
        <time>2015-11-15T02:39:55Z</time>
      </trkpt>
      <trkpt lat="45.5417" lon="5.59144">
        <ele>353</ele>
        <time>2015-11-15T02:38:35Z</time>
      </trkpt>
      <trkpt lat="45.54163" lon="5.5925">
        <ele>348</ele>
        <time>2015-11-15T02:37:55Z</time>
      </trkpt>
      <trkpt lat="45.54209" lon="5.59342">
        <ele>356</ele>
        <time>2015-11-15T02:37:15Z</time>
      </trkpt>
      <trkpt lat="45.54237" lon="5.59471">
        <ele>354</ele>
        <time>2015-11-15T02:36:35Z</time>
      </trkpt>
      <trkpt lat="45.54247" lon="5.5958">
        <ele>348</ele>
        <time>2015-11-15T02:35:55Z</time>
      </trkpt>
      <trkpt lat="45.54282" lon="5.59713">
        <ele>338</ele>
        <time>2015-11-15T02:35:15Z</time>
      </trkpt>
      <trkpt lat="45.54278" lon="5.59752">
        <ele>333</ele>
        <time>2015-11-15T02:34:35Z</time>
      </trkpt>
      <trkpt lat="45.54287" lon="5.59974">
        <ele>326</ele>
        <time>2015-11-15T02:33:55Z</time>
      </trkpt>
      <trkpt lat="45.54283" lon="5.59978">
        <ele>326</ele>
        <time>2015-11-15T02:33:15Z</time>
      </trkpt>
      <trkpt lat="45.543" lon="5.6005">
        <ele>330</ele>
        <time>2015-11-15T02:32:35Z</time>
      </trkpt>
      <trkpt lat="45.5431" lon="5.60104">
        <ele>333</ele>
        <time>2015-11-15T02:31:55Z</time>
      </trkpt>
      <trkpt lat="45.54324" lon="5.60196">
        <ele>334</ele>
        <time>2015-11-15T02:31:15Z</time>
      </trkpt>
      <trkpt lat="45.54311" lon="5.60273">
        <ele>330</ele>
        <time>2015-11-15T02:30:35Z</time>
      </trkpt>
      <trkpt lat="45.54188" lon="5.604">
        <ele>321</ele>
        <time>2015-11-15T02:29:55Z</time>
      </trkpt>
      <trkpt lat="45.5409" lon="5.60375">
        <ele>320</ele>
        <time>2015-11-15T02:29:15Z</time>
      </trkpt>
      <trkpt lat="45.54055" lon="5.60429">
        <ele>320</ele>
        <time>2015-11-15T02:28:35Z</time>
      </trkpt>
      <trkpt lat="45.54055" lon="5.60543">
        <ele>322</ele>
        <time>2015-11-15T02:27:55Z</time>
      </trkpt>
      <trkpt lat="45.54032" lon="5.6067">
        <ele>322</ele>
        <time>2015-11-15T02:27:15Z</time>
      </trkpt>
      <trkpt lat="45.53965" lon="5.60774">
        <ele>321</ele>
        <time>2015-11-15T02:26:35Z</time>
      </trkpt>
      <trkpt lat="45.53892" lon="5.60868">
        <ele>321</ele>
        <time>2015-11-15T02:25:55Z</time>
      </trkpt>
      <trkpt lat="45.53772" lon="5.61011">
        <ele>320</ele>
        <time>2015-11-15T02:25:15Z</time>
      </trkpt>
      <trkpt lat="45.53713" lon="5.61262">
        <ele>320</ele>
        <time>2015-11-15T02:24:35Z</time>
      </trkpt>
      <trkpt lat="45.53727" lon="5.61422">
        <ele>320</ele>
        <time>2015-11-15T02:23:55Z</time>
      </trkpt>
      <trkpt lat="45.53747" lon="5.61493">
        <ele>320</ele>
        <time>2015-11-15T02:23:15Z</time>
      </trkpt>
      <trkpt lat="45.5378" lon="5.61495">
        <ele>320</ele>
        <time>2015-11-15T02:22:35Z</time>
      </trkpt>
      <trkpt lat="45.53883" lon="5.61391">
        <ele>320</ele>
        <time>2015-11-15T02:21:55Z</time>
      </trkpt>
      <trkpt lat="45.53903" lon="5.61444">
        <ele>320</ele>
        <time>2015-11-15T02:21:15Z</time>
      </trkpt>
      <trkpt lat="45.53961" lon="5.61555">
        <ele>318</ele>
        <time>2015-11-15T02:20:35Z</time>
      </trkpt>
      <trkpt lat="45.54071" lon="5.61414">
        <ele>318</ele>
        <time>2015-11-15T02:19:55Z</time>
      </trkpt>
      <trkpt lat="45.54157" lon="5.61358">
        <ele>315</ele>
        <time>2015-11-15T02:19:15Z</time>
      </trkpt>
      <trkpt lat="45.54197" lon="5.61341">
        <ele>315</ele>
        <time>2015-11-15T02:18:35Z</time>
      </trkpt>
      <trkpt lat="45.54305" lon="5.6142">
        <ele>296</ele>
        <time>2015-11-15T02:17:15Z</time>
      </trkpt>
      <trkpt lat="45.54361" lon="5.61403">
        <ele>288</ele>
        <time>2015-11-15T02:15:15Z</time>
      </trkpt>
      <trkpt lat="45.54374" lon="5.61397">
        <ele>286</ele>
        <time>2015-11-15T02:14:35Z</time>
      </trkpt>
      <trkpt lat="45.54445" lon="5.61381">
        <ele>277</ele>
        <time>2015-11-15T02:13:55Z</time>
      </trkpt>
      <trkpt lat="45.54489" lon="5.61329">
        <ele>276</ele>
        <time>2015-11-15T02:13:15Z</time>
      </trkpt>
      <trkpt lat="45.54524" lon="5.61267">
        <ele>277</ele>
        <time>2015-11-15T02:12:35Z</time>
      </trkpt>
      <trkpt lat="45.54586" lon="5.61319">
        <ele>278</ele>
        <time>2015-11-15T02:11:55Z</time>
      </trkpt>
      <trkpt lat="45.54643" lon="5.61264">
        <ele>280</ele>
        <time>2015-11-15T02:11:15Z</time>
      </trkpt>
      <trkpt lat="45.54727" lon="5.61152">
        <ele>280</ele>
        <time>2015-11-15T02:10:35Z</time>
      </trkpt>
      <trkpt lat="45.54757" lon="5.61134">
        <ele>280</ele>
        <time>2015-11-15T02:09:55Z</time>
      </trkpt>
      <trkpt lat="45.5482" lon="5.61152">
        <ele>275</ele>
        <time>2015-11-15T02:09:15Z</time>
      </trkpt>
      <trkpt lat="45.5488" lon="5.61181">
        <ele>267</ele>
        <time>2015-11-15T02:07:55Z</time>
      </trkpt>
      <trkpt lat="45.54949" lon="5.61189">
        <ele>262</ele>
        <time>2015-11-15T02:07:15Z</time>
      </trkpt>
      <trkpt lat="45.54985" lon="5.61182">
        <ele>260</ele>
        <time>2015-11-15T02:06:35Z</time>
      </trkpt>
      <trkpt lat="45.55007" lon="5.61191">
        <ele>260</ele>
        <time>2015-11-15T02:05:55Z</time>
      </trkpt>
      <trkpt lat="45.55051" lon="5.61255">
        <ele>260</ele>
        <time>2015-11-15T02:04:35Z</time>
      </trkpt>
      <trkpt lat="45.55085" lon="5.61307">
        <ele>260</ele>
        <time>2015-11-15T02:03:55Z</time>
      </trkpt>
      <trkpt lat="45.55113" lon="5.6136">
        <ele>262</ele>
        <time>2015-11-15T02:02:35Z</time>
      </trkpt>
      <trkpt lat="45.55249" lon="5.61414">
        <ele>272</ele>
        <time>2015-11-15T02:01:55Z</time>
      </trkpt>
      <trkpt lat="45.55357" lon="5.61522">
        <ele>281</ele>
        <time>2015-11-15T02:01:15Z</time>
      </trkpt>
      <trkpt lat="45.5537" lon="5.61554">
        <ele>281</ele>
        <time>2015-11-15T02:00:35Z</time>
      </trkpt>
      <trkpt lat="45.55382" lon="5.61619">
        <ele>282</ele>
        <time>2015-11-15T01:59:55Z</time>
      </trkpt>
      <trkpt lat="45.55386" lon="5.61764">
        <ele>284</ele>
        <time>2015-11-15T01:59:15Z</time>
      </trkpt>
      <trkpt lat="45.55397" lon="5.61823">
        <ele>285</ele>
        <time>2015-11-15T01:58:35Z</time>
      </trkpt>
      <trkpt lat="45.55398" lon="5.61876">
        <ele>285</ele>
        <time>2015-11-15T01:57:55Z</time>
      </trkpt>
      <trkpt lat="45.55375" lon="5.62085">
        <ele>286</ele>
        <time>2015-11-15T01:57:15Z</time>
      </trkpt>
      <trkpt lat="45.55367" lon="5.62235">
        <ele>287</ele>
        <time>2015-11-15T01:51:55Z</time>
      </trkpt>
      <trkpt lat="45.55377" lon="5.62326">
        <ele>288</ele>
        <time>2015-11-15T01:51:15Z</time>
      </trkpt>
      <trkpt lat="45.55353" lon="5.62493">
        <ele>283</ele>
        <time>2015-11-15T01:50:35Z</time>
      </trkpt>
      <trkpt lat="45.55348" lon="5.62579">
        <ele>279</ele>
        <time>2015-11-15T01:49:55Z</time>
      </trkpt>
      <trkpt lat="45.55346" lon="5.62621">
        <ele>277</ele>
        <time>2015-11-15T01:49:15Z</time>
      </trkpt>
      <trkpt lat="45.55372" lon="5.62782">
        <ele>273</ele>
        <time>2015-11-15T01:48:35Z</time>
      </trkpt>
      <trkpt lat="45.5543" lon="5.62957">
        <ele>265</ele>
        <time>2015-11-15T01:47:55Z</time>
      </trkpt>
      <trkpt lat="45.55429" lon="5.62984">
        <ele>264</ele>
        <time>2015-11-15T01:47:15Z</time>
      </trkpt>
      <trkpt lat="45.55459" lon="5.63004">
        <ele>262</ele>
        <time>2015-11-15T01:46:35Z</time>
      </trkpt>
      <trkpt lat="45.55536" lon="5.631">
        <ele>262</ele>
        <time>2015-11-15T01:45:55Z</time>
      </trkpt>
      <trkpt lat="45.55595" lon="5.63144">
        <ele>263</ele>
        <time>2015-11-15T01:45:15Z</time>
      </trkpt>
      <trkpt lat="45.55609" lon="5.63174">
        <ele>264</ele>
        <time>2015-11-15T01:44:35Z</time>
      </trkpt>
      <trkpt lat="45.55606" lon="5.63215">
        <ele>267</ele>
        <time>2015-11-15T01:43:55Z</time>
      </trkpt>
      <trkpt lat="45.55682" lon="5.63282">
        <ele>264</ele>
        <time>2015-11-15T01:43:15Z</time>
      </trkpt>
      <trkpt lat="45.55749" lon="5.63382">
        <ele>261</ele>
        <time>2015-11-15T01:42:35Z</time>
      </trkpt>
      <trkpt lat="45.55749" lon="5.63415">
        <ele>261</ele>
        <time>2015-11-15T01:41:55Z</time>
      </trkpt>
      <trkpt lat="45.55687" lon="5.63513">
        <ele>268</ele>
        <time>2015-11-15T01:41:15Z</time>
      </trkpt>
      <trkpt lat="45.55663" lon="5.63613">
        <ele>272</ele>
        <time>2015-11-15T01:40:35Z</time>
      </trkpt>
      <trkpt lat="45.55674" lon="5.6364">
        <ele>273</ele>
        <time>2015-11-15T01:39:55Z</time>
      </trkpt>
      <trkpt lat="45.55672" lon="5.63676">
        <ele>275</ele>
        <time>2015-11-15T01:39:15Z</time>
      </trkpt>
      <trkpt lat="45.55689" lon="5.63747">
        <ele>278</ele>
        <time>2015-11-15T01:38:35Z</time>
      </trkpt>
      <trkpt lat="45.55685" lon="5.63777">
        <ele>279</ele>
        <time>2015-11-15T01:37:55Z</time>
      </trkpt>
      <trkpt lat="45.55654" lon="5.63877">
        <ele>280</ele>
        <time>2015-11-15T01:37:15Z</time>
      </trkpt>
      <trkpt lat="45.55605" lon="5.63946">
        <ele>281</ele>
        <time>2015-11-15T01:36:35Z</time>
      </trkpt>
      <trkpt lat="45.55648" lon="5.64014">
        <ele>286</ele>
        <time>2015-11-15T01:35:55Z</time>
      </trkpt>
      <trkpt lat="45.55699" lon="5.64071">
        <ele>295</ele>
        <time>2015-11-15T01:35:15Z</time>
      </trkpt>
      <trkpt lat="45.55826" lon="5.64139">
        <ele>313</ele>
        <time>2015-11-15T01:34:35Z</time>
      </trkpt>
      <trkpt lat="45.55888" lon="5.64163">
        <ele>318</ele>
        <time>2015-11-15T01:33:55Z</time>
      </trkpt>
      <trkpt lat="45.5591" lon="5.64158">
        <ele>319</ele>
        <time>2015-11-15T01:33:15Z</time>
      </trkpt>
      <trkpt lat="45.55929" lon="5.64133">
        <ele>320</ele>
        <time>2015-11-15T01:32:35Z</time>
      </trkpt>
      <trkpt lat="45.55948" lon="5.64132">
        <ele>319</ele>
        <time>2015-11-15T01:31:55Z</time>
      </trkpt>
      <trkpt lat="45.56012" lon="5.64184">
        <ele>320</ele>
        <time>2015-11-15T01:31:15Z</time>
      </trkpt>
      <trkpt lat="45.56105" lon="5.64291">
        <ele>318</ele>
        <time>2015-11-15T01:30:35Z</time>
      </trkpt>
      <trkpt lat="45.5613" lon="5.64306">
        <ele>314</ele>
        <time>2015-11-15T01:29:55Z</time>
      </trkpt>
      <trkpt lat="45.56176" lon="5.64321">
        <ele>308</ele>
        <time>2015-11-15T01:29:15Z</time>
      </trkpt>
      <trkpt lat="45.56211" lon="5.64316">
        <ele>302</ele>
        <time>2015-11-15T01:28:35Z</time>
      </trkpt>
      <trkpt lat="45.56212" lon="5.64293">
        <ele>300</ele>
        <time>2015-11-15T01:27:55Z</time>
      </trkpt>
      <trkpt lat="45.56227" lon="5.6426">
        <ele>297</ele>
        <time>2015-11-15T01:27:15Z</time>
      </trkpt>
      <trkpt lat="45.56243" lon="5.64244">
        <ele>294</ele>
        <time>2015-11-15T01:26:35Z</time>
      </trkpt>
      <trkpt lat="45.5626" lon="5.64212">
        <ele>290</ele>
        <time>2015-11-15T01:25:55Z</time>
      </trkpt>
      <trkpt lat="45.56274" lon="5.64207">
        <ele>288</ele>
        <time>2015-11-15T01:25:15Z</time>
      </trkpt>
      <trkpt lat="45.56299" lon="5.64219">
        <ele>285</ele>
        <time>2015-11-15T01:24:35Z</time>
      </trkpt>
      <trkpt lat="45.56348" lon="5.64282">
        <ele>280</ele>
        <time>2015-11-15T01:23:55Z</time>
      </trkpt>
      <trkpt lat="45.56417" lon="5.64327">
        <ele>276</ele>
        <time>2015-11-15T01:23:15Z</time>
      </trkpt>
      <trkpt lat="45.56454" lon="5.64385">
        <ele>274</ele>
        <time>2015-11-15T01:22:35Z</time>
      </trkpt>
      <trkpt lat="45.56472" lon="5.64404">
        <ele>273</ele>
        <time>2015-11-15T01:21:55Z</time>
      </trkpt>
      <trkpt lat="45.56386" lon="5.64542">
        <ele>286</ele>
        <time>2015-11-15T01:21:15Z</time>
      </trkpt>
      <trkpt lat="45.56356" lon="5.64707">
        <ele>285</ele>
        <time>2015-11-15T01:20:35Z</time>
      </trkpt>
      <trkpt lat="45.56352" lon="5.64842">
        <ele>280</ele>
        <time>2015-11-15T01:19:55Z</time>
      </trkpt>
      <trkpt lat="45.5636" lon="5.64934">
        <ele>277</ele>
        <time>2015-11-15T01:19:15Z</time>
      </trkpt>
      <trkpt lat="45.56448" lon="5.64985">
        <ele>273</ele>
        <time>2015-11-15T01:18:35Z</time>
      </trkpt>
      <trkpt lat="45.56483" lon="5.65003">
        <ele>272</ele>
        <time>2015-11-15T01:17:55Z</time>
      </trkpt>
      <trkpt lat="45.56503" lon="5.64985">
        <ele>271</ele>
        <time>2015-11-15T01:17:15Z</time>
      </trkpt>
      <trkpt lat="45.56584" lon="5.65022">
        <ele>268</ele>
        <time>2015-11-15T01:16:35Z</time>
      </trkpt>
      <trkpt lat="45.56744" lon="5.64991">
        <ele>280</ele>
        <time>2015-11-15T01:15:55Z</time>
      </trkpt>
      <trkpt lat="45.56832" lon="5.65079">
        <ele>276</ele>
        <time>2015-11-15T01:15:15Z</time>
      </trkpt>
      <trkpt lat="45.56874" lon="5.65079">
        <ele>270</ele>
        <time>2015-11-15T01:14:35Z</time>
      </trkpt>
      <trkpt lat="45.56887" lon="5.6502">
        <ele>270</ele>
        <time>2015-11-15T01:13:55Z</time>
      </trkpt>
      <trkpt lat="45.56913" lon="5.64944">
        <ele>269</ele>
        <time>2015-11-15T01:13:15Z</time>
      </trkpt>
      <trkpt lat="45.56941" lon="5.64873">
        <ele>267</ele>
        <time>2015-11-15T01:12:35Z</time>
      </trkpt>
      <trkpt lat="45.56993" lon="5.64815">
        <ele>263</ele>
        <time>2015-11-15T01:11:55Z</time>
      </trkpt>
      <trkpt lat="45.57067" lon="5.64738">
        <ele>254</ele>
        <time>2015-11-15T01:11:15Z</time>
      </trkpt>
      <trkpt lat="45.57079" lon="5.64695">
        <ele>253</ele>
        <time>2015-11-15T01:10:35Z</time>
      </trkpt>
      <trkpt lat="45.57091" lon="5.64625">
        <ele>253</ele>
        <time>2015-11-15T01:09:55Z</time>
      </trkpt>
      <trkpt lat="45.57104" lon="5.64527">
        <ele>255</ele>
        <time>2015-11-15T01:09:15Z</time>
      </trkpt>
      <trkpt lat="45.57124" lon="5.64466">
        <ele>254</ele>
        <time>2015-11-15T01:08:35Z</time>
      </trkpt>
      <trkpt lat="45.57145" lon="5.64447">
        <ele>253</ele>
        <time>2015-11-15T01:07:55Z</time>
      </trkpt>
      <trkpt lat="45.57239" lon="5.64425">
        <ele>247</ele>
        <time>2015-11-15T01:07:15Z</time>
      </trkpt>
      <trkpt lat="45.57321" lon="5.64426">
        <ele>241</ele>
        <time>2015-11-15T01:06:35Z</time>
      </trkpt>
      <trkpt lat="45.57373" lon="5.64407">
        <ele>237</ele>
        <time>2015-11-15T01:05:55Z</time>
      </trkpt>
      <trkpt lat="45.57456" lon="5.6426">
        <ele>232</ele>
        <time>2015-11-15T01:05:15Z</time>
      </trkpt>
      <trkpt lat="45.57465" lon="5.6423">
        <ele>232</ele>
        <time>2015-11-15T01:04:35Z</time>
      </trkpt>
      <trkpt lat="45.57457" lon="5.64201">
        <ele>232</ele>
        <time>2015-11-15T01:03:55Z</time>
      </trkpt>
      <trkpt lat="45.57462" lon="5.64184">
        <ele>232</ele>
        <time>2015-11-15T01:03:15Z</time>
      </trkpt>
      <trkpt lat="45.5754" lon="5.64229">
        <ele>228</ele>
        <time>2015-11-15T01:02:35Z</time>
      </trkpt>
      <trkpt lat="45.57568" lon="5.64221">
        <ele>227</ele>
        <time>2015-11-15T01:01:55Z</time>
      </trkpt>
      <trkpt lat="45.57597" lon="5.64191">
        <ele>226</ele>
        <time>2015-11-15T01:01:15Z</time>
      </trkpt>
      <trkpt lat="45.57618" lon="5.64118">
        <ele>226</ele>
        <time>2015-11-15T01:00:35Z</time>
      </trkpt>
      <trkpt lat="45.57692" lon="5.64104">
        <ele>224</ele>
        <time>2015-11-15T00:59:55Z</time>
      </trkpt>
      <trkpt lat="45.57715" lon="5.6411">
        <ele>224</ele>
        <time>2015-11-15T00:59:15Z</time>
      </trkpt>
      <trkpt lat="45.57959" lon="5.64317">
        <ele>221</ele>
        <time>2015-11-15T00:58:35Z</time>
      </trkpt>
      <trkpt lat="45.57962" lon="5.64352">
        <ele>221</ele>
        <time>2015-11-15T00:57:55Z</time>
      </trkpt>
      <trkpt lat="45.57928" lon="5.6453">
        <ele>219</ele>
        <time>2015-11-15T00:57:15Z</time>
      </trkpt>
      <trkpt lat="45.57933" lon="5.64535">
        <ele>219</ele>
        <time>2015-11-15T00:56:35Z</time>
      </trkpt>
      <trkpt lat="45.57931" lon="5.64532">
        <ele>219</ele>
        <time>2015-11-15T00:55:55Z</time>
      </trkpt>
      <trkpt lat="45.57928" lon="5.64542">
        <ele>218</ele>
        <time>2015-11-15T00:55:15Z</time>
      </trkpt>
      <trkpt lat="45.57938" lon="5.64541">
        <ele>218</ele>
        <time>2015-11-15T00:54:35Z</time>
      </trkpt>
      <trkpt lat="45.57972" lon="5.64504">
        <ele>220</ele>
        <time>2015-11-15T00:53:55Z</time>
      </trkpt>
      <trkpt lat="45.5804" lon="5.64458">
        <ele>221</ele>
        <time>2015-11-15T00:53:15Z</time>
      </trkpt>
      <trkpt lat="45.58243" lon="5.64293">
        <ele>221</ele>
        <time>2015-11-15T00:52:35Z</time>
      </trkpt>
      <trkpt lat="45.58554" lon="5.64058">
        <ele>216</ele>
        <time>2015-11-15T00:51:55Z</time>
      </trkpt>
      <trkpt lat="45.58719" lon="5.63919">
        <ele>216</ele>
        <time>2015-11-15T00:51:15Z</time>
      </trkpt>
      <trkpt lat="45.58868" lon="5.63812">
        <ele>215</ele>
        <time>2015-11-15T00:50:35Z</time>
      </trkpt>
      <trkpt lat="45.58952" lon="5.63736">
        <ele>215</ele>
        <time>2015-11-15T00:49:55Z</time>
      </trkpt>
      <trkpt lat="45.58984" lon="5.63718">
        <ele>215</ele>
        <time>2015-11-15T00:49:15Z</time>
      </trkpt>
      <trkpt lat="45.59153" lon="5.63579">
        <ele>213</ele>
        <time>2015-11-15T00:47:55Z</time>
      </trkpt>
      <trkpt lat="45.59255" lon="5.63499">
        <ele>213</ele>
        <time>2015-11-15T00:45:55Z</time>
      </trkpt>
      <trkpt lat="45.59343" lon="5.63437">
        <ele>213</ele>
        <time>2015-11-15T00:45:15Z</time>
      </trkpt>
      <trkpt lat="45.59498" lon="5.6331">
        <ele>213</ele>
        <time>2015-11-15T00:44:35Z</time>
      </trkpt>
      <trkpt lat="45.59564" lon="5.63265">
        <ele>213</ele>
        <time>2015-11-15T00:43:15Z</time>
      </trkpt>
      <trkpt lat="45.59647" lon="5.63199">
        <ele>212</ele>
        <time>2015-11-15T00:42:35Z</time>
      </trkpt>
      <trkpt lat="45.59778" lon="5.63097">
        <ele>212</ele>
        <time>2015-11-15T00:41:15Z</time>
      </trkpt>
      <trkpt lat="45.59787" lon="5.63087">
        <ele>211</ele>
        <time>2015-11-15T00:40:35Z</time>
      </trkpt>
      <trkpt lat="45.59788" lon="5.6309">
        <ele>212</ele>
      </trkpt>
      <trkpt lat="45.59832" lon="5.63167">
        <ele>212</ele>
      </trkpt>
      <trkpt lat="45.59878" lon="5.63236">
        <ele>219</ele>
      </trkpt>
      <trkpt lat="45.59875" lon="5.63298">
        <ele>223</ele>
      </trkpt>
      <trkpt lat="45.59887" lon="5.63343">
        <ele>227</ele>
      </trkpt>
      <trkpt lat="45.59874" lon="5.63401">
        <ele>230</ele>
      </trkpt>
      <trkpt lat="45.59856" lon="5.6347">
        <ele>233</ele>
      </trkpt>
      <trkpt lat="45.59856" lon="5.6347">
        <ele>233</ele>
      </trkpt>
    </trkseg>
  </trk>
</gpx>